Estación Meteorológica Peña el Pijo (Robertgarden) [ 07/23/19 12:59:36 CEST ]

Fecha Hora Presion(HPa) Temp (°C) Humedad % Rocio (°C) Viento ( m/s) Direccion Lluvia 1Hora(mm) Lluvia 24H(mm) LLuvia Total(mm)
2019-Jan-12 01:01:52 1013.700 -4.9 57 -12.2         161.09
2019-Jan-12 02:01:41 1013.700 -5.2 59 -12.0         161.09
2019-Jan-12 03:01:44 1013.700 -5.7 60 -12.2         161.09
2019-Jan-12 04:01:40 1013.900 -5.5 61 -11.9         161.09
2019-Jan-12 05:01:40 1013.800 -6.2 63 -12.1         161.09
2019-Jan-12 06:01:40 1013.700 -5.7 61 -12.0         161.09
2019-Jan-12 07:01:38 1013.900 -5.3 58 -12.3         161.09
2019-Jan-12 08:01:53 1014.300 -5.6 59 -12.4         161.09
2019-Jan-12 09:02:00 1014.700 -5.6 60 -12.1         161.09
2019-Jan-12 10:01:39 1015.000 -0.7 60 -7.5         161.09
2019-Jan-12 11:01:44 1015.300 6.4 40 -6.2         161.09
2019-Jan-12 12:01:44 1015.000 9.5 31 -6.8         161.09
2019-Jan-12 13:01:51 1013.900 10.4 29 -7.0 0.4 NE     161.09
2019-Jan-12 14:01:57 1013.300 12.8 27 -5.9 0.6 ENE     161.09
2019-Jan-12 15:02:01 1012.800 13.6 26 -5.8         161.09
2019-Jan-12 16:01:54 1012.700 12.8 27 -5.9         161.09
2019-Jan-12 17:01:51 1013.200 10.0 29 -7.3         161.09
2019-Jan-12 18:01:57 1013.400 6.9 34 -8.0         161.09
2019-Jan-12 19:01:43 1014.300 3.4 41 -8.6         161.09
2019-Jan-12 20:01:47 1014.900 0.5 48 -9.3         161.09
2019-Jan-12 21:01:44 1015.200 -0.8 53 -9.2         161.09
2019-Jan-12 22:01:43 1015.600 -1.9 58 -9.1         161.09
2019-Jan-12 23:01:41 1015.700 -2.1 60 -8.8         161.09

Temperatura Máxima:13°    Temperatura Mínima:-6°
Presión Máxima:1015.700 Hpa    Presión Mínima:1012.700 Hpa


Volver